createdAt,value
2018-10-06T00:01:56.425Z,5.90
2018-10-06T00:06:00.808Z,5.90
2018-10-06T00:10:05.325Z,5.80
2018-10-06T00:14:09.725Z,5.80
2018-10-06T00:18:13.947Z,5.70
2018-10-06T00:22:18.281Z,5.70
2018-10-06T00:26:22.612Z,5.80
2018-10-06T00:30:27.254Z,5.70
2018-10-06T00:34:31.487Z,5.70
2018-10-06T00:38:35.828Z,5.60
2018-10-06T00:42:40.061Z,5.60
2018-10-06T00:46:44.370Z,5.60
2018-10-06T00:50:48.709Z,5.50
2018-10-06T00:54:53.106Z,5.60
2018-10-06T00:58:57.333Z,5.60
2018-10-06T01:03:01.806Z,5.50
2018-10-06T01:07:06.158Z,5.50
2018-10-06T01:11:11.582Z,5.40
2018-10-06T01:15:15.832Z,5.40
2018-10-06T01:19:20.152Z,5.40
2018-10-06T01:23:24.349Z,5.30
2018-10-06T01:27:28.721Z,5.30
2018-10-06T01:31:32.941Z,5.30
2018-10-06T01:35:37.296Z,5.30
2018-10-06T01:39:41.502Z,5.40
2018-10-06T01:43:46.873Z,5.30
2018-10-06T01:47:51.149Z,5.20
2018-10-06T01:51:55.486Z,5.20
2018-10-06T01:55:59.758Z,5.20
2018-10-06T02:00:04.078Z,5.20
2018-10-06T02:04:08.574Z,5.20
2018-10-06T02:08:12.901Z,5.20
2018-10-06T02:12:17.374Z,5.10
2018-10-06T02:16:21.657Z,5.20
2018-10-06T02:20:25.989Z,5.20
2018-10-06T02:24:30.220Z,5.10
2018-10-06T02:28:34.621Z,5.20
2018-10-06T02:32:38.854Z,5.20
2018-10-06T02:36:43.313Z,5.10
2018-10-06T02:40:47.514Z,5.10
2018-10-06T02:44:51.813Z,5.10
2018-10-06T02:48:56.084Z,5.10
2018-10-06T02:53:00.354Z,5.10
2018-10-06T02:57:04.616Z,5.00
2018-10-06T03:01:09.747Z,5.00
2018-10-06T03:05:16.252Z,5.00
2018-10-06T03:09:20.462Z,5.00
2018-10-06T03:13:24.807Z,4.90
2018-10-06T03:17:29.066Z,4.90
2018-10-06T03:21:33.456Z,5.00
2018-10-06T03:25:37.691Z,5.00
2018-10-06T03:29:41.988Z,4.90
2018-10-06T03:33:46.258Z,4.90
2018-10-06T03:37:50.765Z,4.90
2018-10-06T03:41:55.008Z,4.90
2018-10-06T03:45:59.386Z,5.00
2018-10-06T03:50:03.664Z,5.00
2018-10-06T03:54:10.848Z,5.00
2018-10-06T03:58:15.028Z,5.00
2018-10-06T04:02:19.373Z,5.00
2018-10-06T04:06:23.638Z,5.10
2018-10-06T04:10:27.993Z,5.10
2018-10-06T04:14:32.259Z,5.10
2018-10-06T04:18:36.811Z,5.00
2018-10-06T04:22:41.064Z,5.00
2018-10-06T04:26:45.533Z,4.90
2018-10-06T04:30:49.878Z,4.90
2018-10-06T04:34:54.336Z,4.90
2018-10-06T04:38:58.611Z,4.90
2018-10-06T04:43:02.942Z,4.80
2018-10-06T04:47:07.228Z,4.80
2018-10-06T04:51:11.541Z,4.70
2018-10-06T04:55:15.895Z,4.90
2018-10-06T04:59:20.520Z,4.90
2018-10-06T05:03:25.125Z,4.90
2018-10-06T05:07:29.336Z,5.00
2018-10-06T05:11:33.627Z,5.00
2018-10-06T05:15:37.871Z,5.00
2018-10-06T05:19:42.201Z,4.90
2018-10-06T05:23:46.496Z,4.80
2018-10-06T05:27:50.697Z,4.80
2018-10-06T05:31:55.054Z,4.80
2018-10-06T05:35:59.285Z,4.80
2018-10-06T05:40:03.604Z,4.90
2018-10-06T05:44:08.039Z,4.90
2018-10-06T05:48:12.344Z,4.90
2018-10-06T05:52:16.851Z,5.00
2018-10-06T05:56:21.655Z,5.00
2018-10-06T06:00:26.218Z,5.10
2018-10-06T06:04:31.028Z,5.10
2018-10-06T06:08:35.710Z,5.20
2018-10-06T06:12:40.332Z,5.30
2018-10-06T06:16:44.926Z,5.40
2018-10-06T06:20:49.188Z,5.50
2018-10-06T06:24:53.401Z,5.60
2018-10-06T06:28:57.818Z,5.70
2018-10-06T06:33:02.048Z,5.80
2018-10-06T06:37:06.468Z,5.90
2018-10-06T06:41:10.686Z,6.10
2018-10-06T06:45:15.098Z,6.20
2018-10-06T06:49:19.344Z,6.30
2018-10-06T06:53:23.839Z,6.50
2018-10-06T06:57:28.113Z,6.60
2018-10-06T07:01:32.346Z,6.80
2018-10-06T07:05:36.730Z,6.90
2018-10-06T07:09:41.090Z,7.10
2018-10-06T07:13:45.339Z,7.40
2018-10-06T07:17:49.669Z,7.70
2018-10-06T07:21:54.004Z,8.00
2018-10-06T07:25:58.320Z,8.50
2018-10-06T07:30:02.576Z,8.90
2018-10-06T07:34:06.848Z,9.30
2018-10-06T07:38:11.106Z,9.50
2018-10-06T07:42:16.467Z,9.90
2018-10-06T07:46:20.895Z,10.40
2018-10-06T07:50:25.198Z,10.80
2018-10-06T07:54:29.485Z,10.90
2018-10-06T07:58:33.809Z,11.30
2018-10-06T08:02:38.054Z,11.50
2018-10-06T08:06:42.360Z,12.00
2018-10-06T08:10:46.651Z,12.40
2018-10-06T08:14:50.977Z,12.70
2018-10-06T08:18:55.229Z,13.00
2018-10-06T08:22:59.632Z,13.10
2018-10-06T08:27:03.933Z,13.30
2018-10-06T08:31:09.694Z,13.60
2018-10-06T08:35:13.980Z,13.70
2018-10-06T08:39:18.256Z,14.00
2018-10-06T08:43:22.584Z,14.40
2018-10-06T08:47:26.810Z,15.10
2018-10-06T08:51:31.369Z,15.50
2018-10-06T08:55:35.569Z,15.80
2018-10-06T08:59:40.021Z,16.00
2018-10-06T09:03:44.334Z,15.80
2018-10-06T09:07:48.667Z,15.90
2018-10-06T09:11:53.096Z,15.80
2018-10-06T09:15:57.380Z,15.70
2018-10-06T09:20:01.749Z,15.80
2018-10-06T09:24:06.148Z,15.90
2018-10-06T09:28:10.549Z,16.20
2018-10-06T09:32:14.776Z,16.40
2018-10-06T09:36:19.142Z,16.40
2018-10-06T09:40:23.333Z,16.70
2018-10-06T09:44:27.732Z,17.10
2018-10-06T09:48:32.075Z,17.70
2018-10-06T09:52:36.457Z,18.80
2018-10-06T09:56:40.678Z,19.40
2018-10-06T10:00:50.387Z,19.20
2018-10-06T10:04:58.740Z,19.50
2018-10-06T10:09:03.076Z,19.60
2018-10-06T10:13:07.806Z,19.50
2018-10-06T10:17:12.515Z,18.60
2018-10-06T10:21:16.896Z,18.60
2018-10-06T10:25:21.118Z,19.00
2018-10-06T10:29:27.315Z,20.10
2018-10-06T10:33:31.564Z,21.20
2018-10-06T10:37:36.086Z,21.30
2018-10-06T10:41:40.275Z,22.70
2018-10-06T10:45:44.819Z,22.60
2018-10-06T10:49:49.089Z,23.70
2018-10-06T10:53:53.447Z,24.20
2018-10-06T10:57:58.825Z,24.70
2018-10-06T11:02:03.048Z,25.50
2018-10-06T11:06:07.507Z,25.60
2018-10-06T11:10:11.718Z,26.30
2018-10-06T11:14:16.280Z,26.60
2018-10-06T11:18:20.538Z,26.00
2018-10-06T11:22:24.784Z,24.40
2018-10-06T11:26:29.693Z,23.90
2018-10-06T11:30:34.194Z,24.70
2018-10-06T11:34:38.757Z,26.80
2018-10-06T11:38:43.344Z,27.60
2018-10-06T11:42:47.833Z,27.10
2018-10-06T11:46:52.222Z,27.70
2018-10-06T11:50:56.464Z,27.70
2018-10-06T11:55:00.840Z,27.40
2018-10-06T11:59:05.109Z,27.30
2018-10-06T12:03:09.387Z,28.30
2018-10-06T12:07:13.842Z,26.70
2018-10-06T12:11:18.316Z,25.80
2018-10-06T12:15:23.798Z,25.20
2018-10-06T12:19:28.019Z,26.00
2018-10-06T12:23:32.267Z,25.90
2018-10-06T12:27:37.075Z,25.50
2018-10-06T12:31:41.599Z,26.60
2018-10-06T12:35:46.474Z,27.00
2018-10-06T12:39:50.894Z,26.20
2018-10-06T12:43:55.251Z,25.90
2018-10-06T12:47:59.875Z,26.20
2018-10-06T12:52:05.618Z,26.40
2018-10-06T12:56:10.313Z,26.60
2018-10-06T13:00:14.974Z,26.00
2018-10-06T13:04:19.527Z,25.30
2018-10-06T13:08:23.768Z,24.80
2018-10-06T13:12:28.254Z,24.50
2018-10-06T13:16:32.664Z,24.80
2018-10-06T13:20:37.106Z,26.60
2018-10-06T13:24:41.413Z,28.90
2018-10-06T13:28:45.731Z,30.00
2018-10-06T13:32:50.011Z,29.90
2018-10-06T13:36:54.384Z,29.70
2018-10-06T13:40:58.627Z,30.40
2018-10-06T13:45:05.492Z,30.30
2018-10-06T13:49:13.933Z,29.80
2018-10-06T13:53:20.477Z,27.60
2018-10-06T13:57:26.379Z,27.10
2018-10-06T14:01:33.525Z,27.10
2018-10-06T14:05:42.221Z,26.60
2018-10-06T14:14:14.767Z,25.30
2018-10-06T14:18:21.464Z,24.60
2018-10-06T14:22:27.470Z,23.40
2018-10-06T14:26:34.066Z,23.00
2018-10-06T14:30:39.708Z,22.60
2018-10-06T14:34:44.210Z,22.30
2018-10-06T14:38:48.432Z,22.20
2018-10-06T14:42:52.862Z,22.20
2018-10-06T14:46:57.157Z,22.00
2018-10-06T14:51:01.553Z,21.90
2018-10-06T14:55:06.063Z,21.80
2018-10-06T14:59:10.302Z,21.30
2018-10-06T15:03:14.641Z,20.90
2018-10-06T15:07:18.857Z,20.70
2018-10-06T15:11:23.184Z,20.30
2018-10-06T15:15:27.472Z,19.70
2018-10-06T15:19:31.850Z,19.20
2018-10-06T15:23:36.651Z,19.00
2018-10-06T15:27:40.962Z,18.80
2018-10-06T15:31:45.196Z,18.60
2018-10-06T15:35:49.598Z,18.40
2018-10-06T15:39:54.022Z,18.30
2018-10-06T15:43:58.364Z,17.70
2018-10-06T15:48:02.581Z,17.40
2018-10-06T15:52:08.188Z,17.10
2018-10-06T15:56:12.517Z,16.80
2018-10-06T16:00:17.096Z,16.30
2018-10-06T16:04:21.432Z,16.10
2018-10-06T16:08:25.905Z,16.00
2018-10-06T16:12:30.393Z,15.90
2018-10-06T16:16:35.167Z,15.70
2018-10-06T16:20:39.440Z,15.50
2018-10-06T16:24:43.829Z,15.40
2018-10-06T16:28:48.202Z,15.30
2018-10-06T16:32:52.665Z,15.10
2018-10-06T16:36:56.908Z,14.90
2018-10-06T16:41:01.385Z,14.80
2018-10-06T16:45:06.203Z,14.60
2018-10-06T16:49:10.851Z,14.50
2018-10-06T16:53:15.097Z,14.40
2018-10-06T16:57:19.425Z,14.40
2018-10-06T17:01:23.812Z,14.30
2018-10-06T17:05:28.353Z,14.20
2018-10-06T17:09:32.729Z,14.10
2018-10-06T17:13:37.175Z,14.00
2018-10-06T17:17:41.660Z,13.90
2018-10-06T17:21:46.005Z,13.90
2018-10-06T17:25:51.650Z,13.80
2018-10-06T17:29:56.256Z,13.70
2018-10-06T17:34:01.057Z,13.70
2018-10-06T17:38:05.466Z,13.70
2018-10-06T17:42:10.090Z,13.70
2018-10-06T17:46:14.698Z,13.80
2018-10-06T17:50:19.263Z,13.80
2018-10-06T17:54:24.205Z,13.80
2018-10-06T17:58:28.541Z,13.90
